createdAt,value
2023-05-11T00:00:30.907Z,95883.13
2023-05-11T00:01:33.999Z,95890.13
2023-05-11T00:02:38.816Z,95885.94
2023-05-11T00:03:41.075Z,95886.81
2023-05-11T00:04:46.290Z,95880.09
2023-05-11T00:05:49.379Z,95876.06
2023-05-11T00:06:54.278Z,95880.59
2023-05-11T00:07:56.337Z,95873.81
2023-05-11T00:09:01.004Z,95881.41
2023-05-11T00:10:06.757Z,95881.66
2023-05-11T00:11:11.792Z,95887.00
2023-05-11T00:12:14.421Z,95879.22
2023-05-11T00:13:20.417Z,95884.56
2023-05-11T00:14:22.533Z,95885.31
2023-05-11T00:15:27.459Z,95880.16
2023-05-11T00:16:29.893Z,95883.72
2023-05-11T00:17:34.647Z,95884.72
2023-05-11T00:18:36.802Z,95884.06
2023-05-11T00:19:41.534Z,95886.81
2023-05-11T00:20:43.582Z,95878.28
2023-05-11T00:21:48.208Z,95882.63
2023-05-11T00:22:50.280Z,95882.63
2023-05-11T00:23:55.113Z,95881.38
2023-05-11T00:24:57.102Z,95881.38
2023-05-11T00:26:04.375Z,95879.72
2023-05-11T00:27:06.643Z,95884.06
2023-05-11T00:28:11.358Z,95875.19
2023-05-11T00:29:13.417Z,95873.59
2023-05-11T00:30:18.646Z,95872.94
2023-05-11T00:31:20.870Z,95881.69
2023-05-11T00:32:25.695Z,95876.50
2023-05-11T00:33:27.751Z,95882.19
2023-05-11T00:34:32.849Z,95878.03
2023-05-11T00:35:34.869Z,95877.34
2023-05-11T00:36:41.256Z,95881.38
2023-05-11T00:37:43.516Z,95873.44
2023-05-11T00:38:48.179Z,95874.28
2023-05-11T00:39:50.244Z,95867.53
2023-05-11T00:40:55.565Z,95873.44
2023-05-11T00:42:01.005Z,95869.34
2023-05-11T00:43:05.623Z,95878.03
2023-05-11T00:44:07.721Z,95874.69
2023-05-11T00:45:12.811Z,95873.84
2023-05-11T00:46:14.902Z,95872.53
2023-05-11T00:47:19.725Z,95871.53
2023-05-11T00:48:21.884Z,95870.84
2023-05-11T00:49:26.965Z,95866.38
2023-05-11T00:50:29.258Z,95870.38
2023-05-11T00:51:34.963Z,95872.22
2023-05-11T00:52:37.241Z,95869.94
2023-05-11T00:53:42.050Z,95874.19
2023-05-11T00:54:44.461Z,95869.13
2023-05-11T00:55:49.204Z,95876.88
2023-05-11T00:56:51.224Z,95874.38
2023-05-11T00:57:58.462Z,95872.44
2023-05-11T00:59:00.899Z,95867.34
2023-05-11T01:00:05.810Z,95869.94
2023-05-11T01:01:08.284Z,95869.84
2023-05-11T01:02:13.297Z,95868.41
2023-05-11T01:03:16.037Z,95874.53
2023-05-11T01:04:20.925Z,95871.78
2023-05-11T01:05:23.037Z,95872.53
2023-05-11T01:06:34.798Z,95871.53
2023-05-11T01:07:44.307Z,95871.63
2023-05-11T01:08:52.340Z,95870.69
2023-05-11T01:10:01.043Z,95873.28
2023-05-11T01:11:14.004Z,95873.22
2023-05-11T01:12:23.827Z,95873.44
2023-05-11T01:13:36.596Z,95868.41
2023-05-11T01:14:43.981Z,95875.59
2023-05-11T01:15:53.432Z,95871.44
2023-05-11T01:16:59.644Z,95872.25
2023-05-11T01:18:14.431Z,95873.00
2023-05-11T01:19:24.800Z,95871.44
2023-05-11T01:20:32.875Z,95874.97
2023-05-11T01:21:36.073Z,95876.81
2023-05-11T01:22:58.628Z,95871.78
2023-05-11T01:24:19.637Z,95871.63
2023-05-11T01:25:40.616Z,95867.22
2023-05-11T01:27:26.924Z,95868.91
2023-05-11T01:28:53.251Z,95868.25
2023-05-11T01:30:27.630Z,95871.09
2023-05-11T01:31:32.339Z,95873.16
2023-05-11T01:32:41.422Z,95866.38
2023-05-11T01:33:50.203Z,95864.88
2023-05-11T01:35:03.156Z,95865.03
2023-05-11T01:36:09.326Z,95867.69
2023-05-11T01:37:17.047Z,95871.19
2023-05-11T01:38:22.732Z,95871.19
2023-05-11T01:39:33.355Z,95870.28
2023-05-11T01:40:37.616Z,95870.28
2023-05-11T01:41:44.934Z,95874.53
2023-05-11T01:42:50.318Z,95874.53
2023-05-11T01:43:58.621Z,95867.84
2023-05-11T01:45:02.223Z,95865.25
2023-05-11T01:46:12.100Z,95871.25
2023-05-11T01:47:17.576Z,95874.69
2023-05-11T01:48:27.043Z,95871.25
2023-05-11T01:49:31.346Z,95866.03
2023-05-11T01:50:37.426Z,95867.69
2023-05-11T01:51:42.365Z,95874.41
2023-05-11T01:52:49.798Z,95870.28
2023-05-11T01:53:53.550Z,95878.03
2023-05-11T01:55:00.370Z,95866.91
2023-05-11T01:56:04.109Z,95871.09
2023-05-11T01:57:10.053Z,95874.84
2023-05-11T01:58:15.269Z,95877.53
2023-05-11T01:59:21.362Z,95869.81
2023-05-11T02:00:24.223Z,95870.66
2023-05-11T02:01:32.696Z,95874.16
2023-05-11T02:02:36.999Z,95872.50
2023-05-11T02:03:44.366Z,95871.34
2023-05-11T02:04:48.053Z,95873.94
2023-05-11T02:05:55.225Z,95872.97
2023-05-11T02:06:59.338Z,95875.44
2023-05-11T02:08:07.397Z,95873.84
2023-05-11T02:09:12.461Z,95867.00
2023-05-11T02:10:19.506Z,95875.66
2023-05-11T02:11:24.200Z,95864.47
2023-05-11T02:12:30.534Z,95869.66
2023-05-11T02:13:34.371Z,95871.19
2023-05-11T02:14:40.720Z,95867.53
2023-05-11T02:15:45.295Z,95870.28
2023-05-11T02:16:53.615Z,95872.09
2023-05-11T02:17:56.859Z,95868.78
2023-05-11T02:19:02.969Z,95873.09
2023-05-11T02:20:08.338Z,95870.38
2023-05-11T02:21:13.844Z,95866.69
2023-05-11T02:22:16.885Z,95872.53
2023-05-11T02:23:23.995Z,95865.72
2023-05-11T02:24:29.233Z,95872.72
2023-05-11T02:25:34.495Z,95871.03
2023-05-11T02:26:36.667Z,95877.13
2023-05-11T02:27:42.048Z,95872.72
2023-05-11T02:28:44.252Z,95867.63
2023-05-11T02:29:49.415Z,95872.88
2023-05-11T02:30:55.813Z,95866.19
2023-05-11T02:32:09.484Z,95868.69
2023-05-11T02:33:14.952Z,95870.44
2023-05-11T02:34:24.651Z,95875.59
2023-05-11T02:35:30.156Z,95874.25
2023-05-11T02:36:36.932Z,95870.72
2023-05-11T02:37:43.769Z,95872.53
2023-05-11T02:38:50.518Z,95866.47
2023-05-11T02:40:02.897Z,95870.88
2023-05-11T02:41:12.171Z,95869.06
2023-05-11T02:42:18.710Z,95866.16
2023-05-11T02:43:27.357Z,95866.66
2023-05-11T02:44:35.746Z,95868.44
2023-05-11T02:45:41.870Z,95861.59
2023-05-11T02:46:47.178Z,95869.97
2023-05-11T02:47:56.961Z,95871.78
2023-05-11T02:49:02.847Z,95872.69
2023-05-11T02:50:09.899Z,95866.75
2023-05-11T02:51:14.474Z,95865.06
2023-05-11T02:52:20.537Z,95865.94
2023-05-11T02:53:27.889Z,95867.81
2023-05-11T02:54:33.994Z,95866.00
2023-05-11T02:55:36.066Z,95861.91
2023-05-11T02:56:41.414Z,95863.72
2023-05-11T02:57:44.123Z,95866.16
2023-05-11T02:58:49.234Z,95856.56
2023-05-11T02:59:52.050Z,95860.22
2023-05-11T03:00:57.285Z,95862.13
2023-05-11T03:02:00.889Z,95854.44
2023-05-11T03:03:08.714Z,95863.13
2023-05-11T03:04:10.957Z,95857.00
2023-05-11T03:05:15.747Z,95856.13
2023-05-11T03:06:17.850Z,95863.25
2023-05-11T03:07:22.541Z,95860.00
2023-05-11T03:08:25.031Z,95856.72
2023-05-11T03:09:29.792Z,95862.03
2023-05-11T03:10:32.369Z,95854.44
2023-05-11T03:11:37.241Z,95862.19
2023-05-11T03:12:39.458Z,95856.28
2023-05-11T03:13:45.340Z,95856.28
2023-05-11T03:14:48.235Z,95850.84
2023-05-11T03:15:54.316Z,95862.03
2023-05-11T03:16:57.431Z,95851.56
2023-05-11T03:18:03.692Z,95856.47
2023-05-11T03:19:09.630Z,95851.56
2023-05-11T03:20:15.220Z,95855.19
2023-05-11T03:21:21.527Z,95848.34
2023-05-11T03:22:27.284Z,95855.03
2023-05-11T03:23:30.899Z,95858.44
2023-05-11T03:24:36.442Z,95853.38
2023-05-11T03:25:41.304Z,95852.38
2023-05-11T03:26:44.305Z,95852.38
2023-05-11T03:27:49.519Z,95847.22
2023-05-11T03:28:52.773Z,95852.53
2023-05-11T03:29:59.777Z,95841.94
2023-05-11T03:31:01.941Z,95846.94
2023-05-11T03:32:07.113Z,95850.53
2023-05-11T03:33:09.844Z,95845.44
2023-05-11T03:34:17.213Z,95848.09
2023-05-11T03:37:22.077Z,95853.38
2023-05-11T03:38:24.619Z,95853.38
2023-05-11T03:39:32.768Z,95850.78
2023-05-11T03:40:37.441Z,95848.09
2023-05-11T03:41:43.400Z,95848.03
2023-05-11T03:42:46.724Z,95851.47
2023-05-11T03:43:54.151Z,95846.94
2023-05-11T03:44:59.880Z,95846.06
2023-05-11T03:46:06.830Z,95852.06
2023-05-11T03:47:10.630Z,95852.06
2023-05-11T03:48:18.641Z,95853.81
2023-05-11T03:49:24.641Z,95855.47
2023-05-11T03:50:30.908Z,95844.34
2023-05-11T03:51:34.676Z,95847.72
2023-05-11T03:52:40.333Z,95847.72
2023-05-11T03:53:42.618Z,95845.22
2023-05-11T03:54:47.407Z,95849.53
2023-05-11T03:55:50.840Z,95849.38
2023-05-11T03:56:55.566Z,95843.31
2023-05-11T03:57:57.909Z,95846.88
2023-05-11T03:59:02.746Z,95845.72
2023-05-11T04:00:06.716Z,95841.38
2023-05-11T04:01:11.893Z,95844.06
2023-05-11T04:02:14.224Z,95847.56
2023-05-11T04:03:19.113Z,95838.94
2023-05-11T04:04:28.964Z,95837.03
2023-05-11T04:05:33.695Z,95834.38
2023-05-11T04:06:35.873Z,95838.88
2023-05-11T04:07:41.932Z,95837.03
2023-05-11T04:08:44.357Z,95833.47
2023-05-11T04:09:49.066Z,95838.66
2023-05-11T04:10:51.126Z,95836.13
2023-05-11T04:11:55.941Z,95843.63
2023-05-11T04:12:58.191Z,95840.09
2023-05-11T04:14:02.851Z,95835.06
2023-05-11T04:15:05.648Z,95835.75
2023-05-11T04:16:10.972Z,95838.16
2023-05-11T04:17:13.044Z,95838.28
2023-05-11T04:18:17.757Z,95838.59
2023-05-11T04:19:20.207Z,95840.56
2023-05-11T04:20:27.740Z,95845.88
2023-05-11T04:21:29.849Z,95843.78
2023-05-11T04:22:34.537Z,95843.03
2023-05-11T04:23:37.369Z,95844.91
2023-05-11T04:24:42.253Z,95841.25
2023-05-11T04:25:44.349Z,95844.66
2023-05-11T04:26:49.053Z,95834.38
2023-05-11T04:27:51.138Z,95843.63
2023-05-11T04:28:55.893Z,95838.50
2023-05-11T04:29:57.944Z,95841.25
2023-05-11T04:31:02.735Z,95846.09
2023-05-11T04:32:05.367Z,95844.38
2023-05-11T04:33:10.101Z,95844.38
2023-05-11T04:34:12.166Z,95843.63
2023-05-11T04:35:16.777Z,95845.28
2023-05-11T04:36:22.472Z,95842.69
2023-05-11T04:37:27.117Z,95851.28
2023-05-11T04:38:29.244Z,95842.63
2023-05-11T04:39:34.438Z,95851.28
2023-05-11T04:40:36.693Z,95845.72
2023-05-11T04:41:41.343Z,95846.47
2023-05-11T04:42:43.403Z,95848.81
2023-05-11T04:43:48.041Z,95852.41
2023-05-11T04:44:56.345Z,95846.03
2023-05-11T04:45:59.404Z,95851.97
2023-05-11T04:47:04.095Z,95848.41
2023-05-11T04:48:06.935Z,95853.00
2023-05-11T04:49:11.634Z,95849.72
2023-05-11T04:50:13.827Z,95853.31
2023-05-11T04:51:18.764Z,95853.41
2023-05-11T04:52:23.470Z,95851.66
2023-05-11T04:53:28.116Z,95849.06
2023-05-11T04:54:31.345Z,95848.56
2023-05-11T04:55:36.041Z,95847.25
2023-05-11T04:56:40.818Z,95842.16
2023-05-11T04:57:45.488Z,95850.66
2023-05-11T04:58:47.596Z,95849.00
2023-05-11T04:59:52.289Z,95853.41
2023-05-11T05:00:54.406Z,95849.16
2023-05-11T05:01:59.202Z,95854.84
2023-05-11T05:03:01.262Z,95860.03
2023-05-11T05:04:06.389Z,95855.53
2023-05-11T05:05:09.577Z,95854.03
2023-05-11T05:06:14.252Z,95860.91
2023-05-11T05:07:16.294Z,95853.69
2023-05-11T05:08:23.545Z,95856.53
2023-05-11T05:09:25.694Z,95858.31
2023-05-11T05:10:30.413Z,95855.63
2023-05-11T05:11:32.458Z,95854.78
2023-05-11T05:12:37.115Z,95857.38
2023-05-11T05:13:39.171Z,95858.13
2023-05-11T05:14:43.828Z,95860.63
2023-05-11T05:15:45.869Z,95861.47
2023-05-11T05:16:50.572Z,95865.75
2023-05-11T05:17:52.773Z,95868.06
2023-05-11T05:18:57.562Z,95856.63
2023-05-11T05:19:59.674Z,95864.97
2023-05-11T05:21:04.342Z,95858.88
2023-05-11T05:22:06.467Z,95857.69
2023-05-11T05:23:11.124Z,95857.81
2023-05-11T05:24:15.781Z,95856.88
2023-05-11T05:25:21.739Z,95857.81
2023-05-11T05:26:23.801Z,95860.88
2023-05-11T05:27:28.782Z,95857.53
2023-05-11T05:28:30.848Z,95864.25
2023-05-11T05:29:35.558Z,95854.72
2023-05-11T05:30:37.664Z,95859.06
2023-05-11T05:31:42.415Z,95869.25
2023-05-11T05:32:44.583Z,95859.56
2023-05-11T05:33:49.268Z,95864.56
2023-05-11T05:34:51.400Z,95871.00
2023-05-11T05:35:56.096Z,95863.88
2023-05-11T05:36:58.148Z,95860.06
2023-05-11T05:38:02.925Z,95855.38
2023-05-11T05:39:09.072Z,95862.66
2023-05-11T05:40:16.910Z,95859.66
2023-05-11T05:41:19.452Z,95869.75
2023-05-11T05:42:24.103Z,95861.91
2023-05-11T05:43:26.150Z,95862.91
2023-05-11T05:44:30.781Z,95857.91
2023-05-11T05:45:32.813Z,95863.91
2023-05-11T05:46:37.563Z,95862.91
2023-05-11T05:47:40.181Z,95867.00
2023-05-11T05:48:44.854Z,95869.34
2023-05-11T05:49:46.959Z,95865.16
2023-05-11T05:50:51.614Z,95866.34
2023-05-11T05:51:53.707Z,95855.31
2023-05-11T05:52:58.360Z,95866.44
2023-05-11T05:54:00.563Z,95867.84
2023-05-11T05:55:05.212Z,95864.34
2023-05-11T05:56:10.366Z,95861.50
2023-05-11T05:57:15.764Z,95869.28
2023-05-11T05:58:18.026Z,95869.84
2023-05-11T05:59:24.469Z,95868.75
2023-05-11T06:00:26.499Z,95867.41
2023-05-11T06:01:31.557Z,95869.69
2023-05-11T06:02:33.677Z,95876.13
2023-05-11T06:03:40.341Z,95870.19
2023-05-11T06:04:45.289Z,95869.09
2023-05-11T06:05:47.461Z,95872.78
2023-05-11T06:06:52.211Z,95877.22
2023-05-11T06:08:08.402Z,95869.94
2023-05-11T06:09:14.262Z,95869.75
2023-05-11T06:10:16.567Z,95882.47
2023-05-11T06:11:24.230Z,95874.94
2023-05-11T06:12:28.944Z,95873.88
2023-05-11T06:13:30.997Z,95873.88
2023-05-11T06:14:35.678Z,95879.72
2023-05-11T06:15:37.980Z,95875.94
2023-05-11T06:16:42.754Z,95875.53
2023-05-11T06:17:44.994Z,95872.19
2023-05-11T06:18:49.842Z,95876.13
2023-05-11T06:19:52.511Z,95874.69
2023-05-11T06:20:57.482Z,95877.72
2023-05-11T06:22:04.276Z,95873.19
2023-05-11T06:23:08.202Z,95878.03
2023-05-11T06:24:12.875Z,95871.94
2023-05-11T06:25:15.201Z,95870.25
2023-05-11T06:26:19.867Z,95879.56
2023-05-11T06:27:27.215Z,95871.44
2023-05-11T06:28:30.224Z,95877.44
2023-05-11T06:29:34.866Z,95875.28
2023-05-11T06:30:36.885Z,95873.25
2023-05-11T06:31:41.696Z,95877.56
2023-05-11T06:32:43.856Z,95874.13
2023-05-11T06:33:49.269Z,95881.50
2023-05-11T06:34:51.292Z,95881.56
2023-05-11T06:35:56.009Z,95879.31
2023-05-11T06:36:59.409Z,95875.28
2023-05-11T06:38:04.020Z,95880.22
2023-05-11T06:39:07.062Z,95880.63
2023-05-11T06:40:13.691Z,95873.91
2023-05-11T06:41:15.750Z,95877.25
2023-05-11T06:42:20.435Z,95877.25
2023-05-11T06:43:25.386Z,95872.56
2023-05-11T06:44:30.222Z,95869.88
2023-05-11T06:45:34.974Z,95871.84
2023-05-11T06:46:37.058Z,95870.50
2023-05-11T06:47:41.854Z,95866.81
2023-05-11T06:48:43.997Z,95873.56
2023-05-11T06:49:48.779Z,95867.47
2023-05-11T06:50:50.850Z,95866.41
2023-05-11T06:51:55.647Z,95870.59
2023-05-11T06:52:57.759Z,95869.19
2023-05-11T06:54:02.593Z,95873.00
2023-05-11T06:55:08.092Z,95870.81
2023-05-11T06:56:10.676Z,95868.97
2023-05-11T06:57:15.333Z,95866.00
2023-05-11T06:58:20.712Z,95861.31
2023-05-11T06:59:28.155Z,95862.91
2023-05-11T07:00:30.201Z,95867.81
2023-05-11T07:01:35.023Z,95862.63
2023-05-11T07:02:37.152Z,95866.13
2023-05-11T07:03:41.851Z,95863.91
2023-05-11T07:04:43.925Z,95863.63
2023-05-11T07:05:48.580Z,95868.31
2023-05-11T07:06:50.681Z,95858.59
2023-05-11T07:07:55.348Z,95863.31
2023-05-11T07:08:57.481Z,95862.19
2023-05-11T07:10:02.142Z,95859.84
2023-05-11T07:11:04.246Z,95866.38
2023-05-11T07:12:09.089Z,95861.56
2023-05-11T07:13:11.310Z,95871.34
2023-05-11T07:14:16.004Z,95865.03
2023-05-11T07:15:21.009Z,95867.56
2023-05-11T07:16:25.981Z,95865.00
2023-05-11T07:17:28.866Z,95856.66
2023-05-11T07:18:33.611Z,95862.34
2023-05-11T07:19:38.278Z,95865.44
2023-05-11T07:20:41.162Z,95866.84
2023-05-11T07:21:45.863Z,95861.97
2023-05-11T07:22:47.987Z,95858.78
2023-05-11T07:23:52.779Z,95862.34
2023-05-11T07:24:54.834Z,95863.44
2023-05-11T07:25:59.488Z,95860.19
2023-05-11T07:27:04.108Z,95859.78
2023-05-11T07:28:06.195Z,95857.13
2023-05-11T07:29:10.868Z,95867.91
2023-05-11T07:30:13.427Z,95861.97
2023-05-11T07:31:20.894Z,95860.75
2023-05-11T07:32:23.072Z,95861.16
2023-05-11T07:33:27.921Z,95863.06
2023-05-11T07:34:32.685Z,95859.00
2023-05-11T07:35:37.387Z,95859.19
2023-05-11T07:36:39.471Z,95866.13
2023-05-11T07:37:44.267Z,95861.13
2023-05-11T07:38:46.626Z,95863.72
2023-05-11T07:39:51.296Z,95863.34
2023-05-11T07:40:55.962Z,95866.13
2023-05-11T07:41:58.029Z,95862.34
2023-05-11T07:43:02.727Z,95866.41
2023-05-11T07:44:07.765Z,95867.72
2023-05-11T07:45:13.327Z,95870.38
2023-05-11T07:46:18.102Z,95868.19
2023-05-11T07:47:23.738Z,95863.44
2023-05-11T07:48:25.860Z,95876.25
2023-05-11T07:49:40.026Z,95866.78
2023-05-11T07:50:49.692Z,95865.66
2023-05-11T07:51:52.770Z,95866.09
2023-05-11T07:52:57.603Z,95871.97
2023-05-11T07:53:59.664Z,95871.78
2023-05-11T07:55:04.314Z,95868.81
2023-05-11T07:56:07.056Z,95866.03
2023-05-11T07:57:13.951Z,95865.84
2023-05-11T07:58:16.144Z,95872.50
2023-05-11T07:59:21.133Z,95864.53
2023-05-11T08:00:23.563Z,95862.31
2023-05-11T08:01:30.826Z,95857.66
2023-05-11T08:02:33.062Z,95860.88
2023-05-11T08:03:37.828Z,95860.97
2023-05-11T08:04:40.853Z,95859.38
2023-05-11T08:05:45.645Z,95858.34
2023-05-11T08:06:47.831Z,95854.28
2023-05-11T08:07:52.562Z,95852.03
2023-05-11T08:08:54.632Z,95855.41
2023-05-11T08:09:59.401Z,95863.59
2023-05-11T08:11:04.508Z,95855.25
2023-05-11T08:12:09.425Z,95857.31
2023-05-11T08:13:11.560Z,95858.13
2023-05-11T08:14:17.393Z,95864.56
2023-05-11T08:15:20.018Z,95861.13
2023-05-11T08:16:24.943Z,95865.75
2023-05-11T08:17:30.314Z,95871.03
2023-05-11T08:18:35.060Z,95868.19
2023-05-11T08:19:37.302Z,95861.38
2023-05-11T08:20:42.480Z,95856.19
2023-05-11T08:21:46.475Z,95865.66
2023-05-11T08:22:51.160Z,95867.03
2023-05-11T08:23:55.838Z,95853.34
2023-05-11T08:24:57.944Z,95857.69
2023-05-11T08:26:02.963Z,95861.97
2023-05-11T08:27:05.247Z,95854.53
2023-05-11T08:28:09.898Z,95860.38
2023-05-11T08:29:12.642Z,95863.81
2023-05-11T08:30:18.007Z,95859.00
2023-05-11T08:31:20.121Z,95860.13
2023-05-11T08:32:25.031Z,95861.22
2023-05-11T08:33:38.088Z,95862.41
2023-05-11T08:34:43.476Z,95860.34
2023-05-11T08:35:45.586Z,95867.88
2023-05-11T08:36:50.555Z,95856.25
2023-05-11T08:37:52.692Z,95863.66
2023-05-11T08:38:59.245Z,95863.50
2023-05-11T08:40:01.496Z,95860.28
2023-05-11T08:41:07.885Z,95857.19
2023-05-11T08:42:10.504Z,95857.84
2023-05-11T08:43:16.837Z,95859.66
2023-05-11T08:44:20.683Z,95862.53
2023-05-11T08:45:26.044Z,95860.56
2023-05-11T08:46:33.842Z,95862.88
2023-05-11T08:47:36.121Z,95863.19
2023-05-11T08:48:44.008Z,95860.16
2023-05-11T08:49:48.840Z,95858.38
2023-05-11T08:50:53.846Z,95859.84
2023-05-11T08:51:56.537Z,95860.44
2023-05-11T08:53:01.178Z,95858.84
2023-05-11T08:54:03.886Z,95852.94
2023-05-11T08:55:10.139Z,95852.41
2023-05-11T08:56:12.535Z,95857.84
2023-05-11T08:57:17.679Z,95845.19
2023-05-11T08:58:22.666Z,95849.56
2023-05-11T08:59:27.776Z,95842.03
2023-05-11T09:00:33.946Z,95849.44
2023-05-11T09:01:37.444Z,95848.31
2023-05-11T09:02:42.781Z,95849.56
2023-05-11T09:03:48.290Z,95853.94
2023-05-11T09:04:53.838Z,95849.78
2023-05-11T09:05:59.065Z,95849.25
2023-05-11T09:07:01.256Z,95852.91
2023-05-11T09:08:08.856Z,95855.78
2023-05-11T09:09:11.063Z,95852.97
2023-05-11T09:10:16.261Z,95857.69
2023-05-11T09:11:18.759Z,95859.53
2023-05-11T09:12:26.428Z,95847.97
2023-05-11T09:13:32.252Z,95855.03
2023-05-11T09:14:37.021Z,95862.56
2023-05-11T09:15:41.697Z,95861.34
2023-05-11T09:16:46.439Z,95861.84
2023-05-11T09:17:48.550Z,95856.94
2023-05-11T09:18:57.109Z,95855.00
2023-05-11T09:20:01.045Z,95862.09
2023-05-11T09:21:06.088Z,95851.63
2023-05-11T09:22:08.246Z,95864.56
2023-05-11T09:23:13.287Z,95856.28
2023-05-11T09:24:15.495Z,95858.09
2023-05-11T09:25:21.084Z,95858.53
2023-05-11T09:26:24.582Z,95853.19
2023-05-11T09:27:29.279Z,95844.22
2023-05-11T09:28:35.900Z,95848.81
2023-05-11T09:29:41.097Z,95852.38
2023-05-11T09:30:43.488Z,95849.84
2023-05-11T09:31:49.700Z,95851.09
2023-05-11T09:32:56.794Z,95845.97
2023-05-11T09:34:16.076Z,95851.47
2023-05-11T09:35:25.752Z,95856.22
2023-05-11T09:36:27.823Z,95843.59
2023-05-11T09:37:32.599Z,95847.06
2023-05-11T09:38:34.753Z,95843.22
2023-05-11T09:39:53.437Z,95846.66
2023-05-11T09:41:05.078Z,95844.06
2023-05-11T09:42:14.496Z,95845.19
2023-05-11T09:43:20.787Z,95846.44
2023-05-11T09:44:32.146Z,95843.09
2023-05-11T09:45:41.836Z,95845.31
2023-05-11T09:46:48.832Z,95844.91
2023-05-11T09:47:50.951Z,95845.09
2023-05-11T09:49:02.931Z,95843.03
2023-05-11T09:50:26.440Z,95843.31
2023-05-11T09:51:33.602Z,95847.78
2023-05-11T09:52:47.223Z,95852.28
2023-05-11T09:53:51.990Z,95844.59
2023-05-11T09:54:54.043Z,95852.72
2023-05-11T09:55:59.252Z,95846.13
2023-05-11T09:57:04.782Z,95853.44
2023-05-11T09:58:06.799Z,95843.03
2023-05-11T09:59:13.292Z,95844.97
2023-05-11T10:00:16.633Z,95847.78
2023-05-11T10:01:32.689Z,95840.72
2023-05-11T10:02:37.493Z,95849.22
2023-05-11T10:03:46.954Z,95858.16
2023-05-11T10:04:52.312Z,95856.41
2023-05-11T10:06:04.507Z,95848.69
2023-05-11T10:07:09.237Z,95846.44
2023-05-11T10:08:13.961Z,95842.16
2023-05-11T10:09:18.733Z,95850.41
2023-05-11T10:10:23.502Z,95851.75
2023-05-11T10:11:26.436Z,95850.63
2023-05-11T10:12:33.686Z,95846.53
2023-05-11T10:13:37.274Z,95840.88
2023-05-11T10:14:41.990Z,95844.22
2023-05-11T10:15:47.148Z,95841.66
2023-05-11T10:16:49.345Z,95852.56
2023-05-11T10:17:56.841Z,95849.03
2023-05-11T10:18:59.544Z,95848.72
2023-05-11T10:20:05.762Z,95845.38
2023-05-11T10:21:11.295Z,95843.59
2023-05-11T10:22:16.260Z,95855.09
2023-05-11T10:23:21.609Z,95855.91
2023-05-11T10:24:26.713Z,95840.09
2023-05-11T10:25:31.496Z,95845.72
2023-05-11T10:26:34.321Z,95843.22
2023-05-11T10:27:39.974Z,95844.13
2023-05-11T10:29:15.528Z,95823.28
2023-05-11T10:30:21.364Z,95833.34
2023-05-11T10:31:24.993Z,95827.84
2023-05-11T10:32:31.497Z,95829.81
2023-05-11T10:33:34.793Z,95827.16
2023-05-11T10:34:39.995Z,95831.31
2023-05-11T10:35:42.685Z,95831.22
2023-05-11T10:36:51.169Z,95834.34
2023-05-11T10:37:53.543Z,95836.34
2023-05-11T10:38:58.204Z,95833.41
2023-05-11T10:40:00.587Z,95834.00
2023-05-11T10:41:19.532Z,95832.25
2023-05-11T10:42:39.190Z,95828.94
2023-05-11T10:44:04.593Z,95841.00
2023-05-11T10:45:21.710Z,95834.22
2023-05-11T10:46:40.811Z,95830.28
2023-05-11T10:48:17.435Z,95839.38
2023-05-11T10:49:39.010Z,95834.75
2023-05-11T10:51:05.639Z,95833.31
2023-05-11T10:52:29.449Z,95836.78
2023-05-11T10:53:49.005Z,95831.56
2023-05-11T10:55:11.927Z,95833.03
2023-05-11T10:56:26.581Z,95822.78
2023-05-11T10:57:43.276Z,95828.13
2023-05-11T10:59:06.747Z,95815.78
2023-05-11T11:01:10.206Z,95817.56
2023-05-11T11:02:14.300Z,95822.78
2023-05-11T11:03:20.155Z,95829.34
2023-05-11T11:04:28.149Z,95825.09
2023-05-11T11:05:38.379Z,95825.50
2023-05-11T11:06:45.426Z,95823.53
2023-05-11T11:08:01.314Z,95826.78
2023-05-11T11:09:08.248Z,95821.84
2023-05-11T11:10:10.678Z,95813.81
2023-05-11T11:11:33.594Z,95810.16
2023-05-11T11:12:38.373Z,95810.25
2023-05-11T11:13:58.757Z,95807.94
2023-05-11T11:15:05.408Z,95813.16
2023-05-11T11:16:14.521Z,95814.66
2023-05-11T11:17:29.215Z,95827.59
2023-05-11T11:18:33.788Z,95805.25
2023-05-11T11:19:38.953Z,95813.97
2023-05-11T11:20:52.484Z,95821.03
2023-05-11T11:21:54.754Z,95813.91
2023-05-11T11:23:02.464Z,95815.16
2023-05-11T11:24:05.259Z,95817.41
2023-05-11T11:25:11.013Z,95814.94
2023-05-11T11:26:15.813Z,95807.28
2023-05-11T11:27:20.673Z,95814.03
2023-05-11T11:28:22.844Z,95817.84
2023-05-11T11:29:28.378Z,95815.16
2023-05-11T11:30:31.040Z,95820.28
2023-05-11T11:31:37.296Z,95826.31
2023-05-11T11:32:43.523Z,95826.91
2023-05-11T11:33:50.208Z,95815.66
2023-05-11T11:34:52.676Z,95816.72
2023-05-11T11:35:57.599Z,95816.56
2023-05-11T11:37:04.174Z,95812.13
2023-05-11T11:38:13.114Z,95809.63
2023-05-11T11:39:15.258Z,95820.06
2023-05-11T11:40:49.463Z,95820.91
2023-05-11T11:42:04.245Z,95812.03
2023-05-11T11:43:18.188Z,95815.38
2023-05-11T11:44:23.241Z,95823.31
2023-05-11T11:45:33.741Z,95813.44
2023-05-11T11:46:40.587Z,95826.72
2023-05-11T11:48:02.864Z,95819.75
2023-05-11T11:49:11.626Z,95822.78
2023-05-11T11:50:14.520Z,95820.88
2023-05-11T11:51:19.252Z,95815.66
2023-05-11T11:52:33.870Z,95809.19
2023-05-11T11:54:05.239Z,95814.50
2023-05-11T11:55:10.644Z,95817.94
2023-05-11T11:56:42.261Z,95823.31
2023-05-11T11:57:46.861Z,95824.22
2023-05-11T11:59:03.211Z,95820.28
2023-05-11T12:00:13.169Z,95826.66
2023-05-11T12:01:16.980Z,95815.09
2023-05-11T12:02:22.652Z,95817.56
2023-05-11T12:03:25.944Z,95823.84
2023-05-11T12:04:55.076Z,95815.88
2023-05-11T12:06:01.928Z,95825.69
2023-05-11T12:07:10.886Z,95802.38
2023-05-11T12:08:18.627Z,95821.00
2023-05-11T12:09:23.715Z,95811.31
2023-05-11T12:10:28.478Z,95819.25
2023-05-11T12:11:30.637Z,95810.72
2023-05-11T12:12:36.333Z,95810.41
2023-05-11T12:13:39.733Z,95822.06
2023-05-11T12:14:49.362Z,95813.84
2023-05-11T12:16:07.578Z,95818.84
2023-05-11T12:17:16.639Z,95814.66
2023-05-11T12:18:21.994Z,95815.50
2023-05-11T12:19:28.482Z,95823.09
2023-05-11T12:20:33.171Z,95812.41
2023-05-11T12:21:35.279Z,95820.47
2023-05-11T12:22:40.115Z,95820.69
2023-05-11T12:23:52.977Z,95819.00
2023-05-11T12:25:08.224Z,95813.59
2023-05-11T12:26:10.336Z,95820.69
2023-05-11T12:27:15.235Z,95814.44
2023-05-11T12:28:22.755Z,95808.97
2023-05-11T12:29:25.260Z,95817.72
2023-05-11T12:30:32.019Z,95820.09
2023-05-11T12:31:36.096Z,95822.56
2023-05-11T12:32:40.814Z,95824.53
2023-05-11T12:33:45.959Z,95825.28
2023-05-11T12:35:00.506Z,95817.59
2023-05-11T12:36:02.653Z,95821.81
2023-05-11T12:37:09.578Z,95821.00
2023-05-11T12:38:11.977Z,95822.69
2023-05-11T12:39:21.085Z,95810.88
2023-05-11T12:40:28.565Z,95820.16
2023-05-11T12:41:30.782Z,95816.53
2023-05-11T12:42:35.538Z,95814.44
2023-05-11T12:43:38.120Z,95810.47
2023-05-11T12:44:43.708Z,95812.34
2023-05-11T12:45:46.199Z,95805.19
2023-05-11T12:46:52.222Z,95805.50
2023-05-11T12:47:55.595Z,95807.47
2023-05-11T12:49:01.435Z,95803.19
2023-05-11T12:50:03.791Z,95799.28
2023-05-11T12:51:08.523Z,95798.75
2023-05-11T12:52:13.393Z,95801.16
2023-05-11T12:53:17.807Z,95799.25
2023-05-11T12:54:41.263Z,95799.97
2023-05-11T12:55:59.900Z,95805.09
2023-05-11T12:57:05.707Z,95797.88